LPB weather

El Alto International Airport
La Paz / El Alto, La Paz Department, Bolivia

Public forecast

Using degrees Celsius for public forecast. Weather courtesy of forecast.io.

METAR (pilot weather report)

Retrieved 2018/10/23 05:00 UTC (24 minutes ago):

SLLP 230500Z 08006KT 9999 FEW004 SCT070 BKN200 07/05 Q1035

TAF (pilot weather forecast)

Forecast is more than 12 hours old.

Retrieved 2018/10/22 00:00 UTC (1 day ago):

TAF SLLP 222300Z 2300/2324 08007KT 9999 FEW015 FEW017CB SCT070 TX15/2320Z TN02/2310Z PROB40 TEMPO 2303/2307 34010KT 5000 TSRA TEMPO 2308/2311 3000E VCFG BKN010 BECMG 2314/2317 13010KT SCT017